Time;durP1;ratioP1;P1;durP2;ratioP2;P2;SDS_P1;SDS_P2;PMS_P1;PMS_P2;Temp;Humidity;BMP_temperature;BMP_pressure;BME280_temperature;BME280_humidity;BME280_pressure;Samples;Min_cycle;Max_cycle;Signal;HPM_P1;HPM_P2
2023/06/29 00:01:06;;;;;;;;;30.60;27.60;;;;;;;;5052006;28;9618;-86
2023/06/29 00:03:34;;;;;;;;;25.40;23.60;;;;;;;;5053758;28;8857;-85
2023/06/29 00:06:05;;;;;;;;;25.80;21.00;;;;;;;;5064360;28;8878;-84
2023/06/29 00:08:35;;;;;;;;;23.00;22.20;;;;;;;;5052490;28;8865;-85
2023/06/29 00:11:04;;;;;;;;;32.80;29.40;;;;;;;;5053822;28;8849;-85
2023/06/29 00:13:32;;;;;;;;;27.40;27.20;;;;;;;;5053843;28;8892;-85
2023/06/29 00:15:59;;;;;;;;;26.20;24.40;;;;;;;;5067841;28;8956;-84
2023/06/29 00:18:29;;;;;;;;;30.20;27.40;;;;;;;;5050611;28;8835;-85
2023/06/29 00:20:57;;;;;;;;;26.60;24.80;;;;;;;;5059900;28;8873;-83
2023/06/29 00:23:24;;;;;;;;;31.80;28.80;;;;;;;;5053629;28;8857;-84
2023/06/29 00:25:53;;;;;;;;;29.40;26.20;;;;;;;;5054691;28;8894;-83
2023/06/29 00:28:20;;;;;;;;;28.80;28.40;;;;;;;;5061592;28;8869;-84
2023/06/29 00:30:47;;;;;;;;;27.60;24.40;;;;;;;;5066450;28;8807;-84
2023/06/29 00:33:14;;;;;;;;;24.00;21.20;;;;;;;;5057974;28;8858;-84
2023/06/29 00:35:43;;;;;;;;;25.40;25.40;;;;;;;;5051895;28;8991;-85
2023/06/29 00:38:10;;;;;;;;;22.40;22.00;;;;;;;;5051519;28;8873;-83
2023/06/29 00:40:41;;;;;;;;;23.80;21.40;;;;;;;;5059356;28;8850;-85
2023/06/29 00:43:09;;;;;;;;;27.20;23.60;;;;;;;;5054555;28;8853;-84
2023/06/29 00:45:37;;;;;;;;;35.00;30.40;;;;;;;;5052719;28;8919;-87
2023/06/29 00:48:04;;;;;;;;;33.00;30.00;;;;;;;;5058325;28;8962;-84
2023/06/29 00:50:36;;;;;;;;;31.20;30.40;;;;;;;;5057769;28;8838;-87
2023/06/29 00:53:05;;;;;;;;;30.80;25.80;;;;;;;;5068308;28;8875;-86
2023/06/29 00:55:35;;;;;;;;;32.50;30.50;;;;;;;;5057968;28;8877;-86
2023/06/29 00:58:02;;;;;;;;;29.00;28.75;;;;;;;;5061958;28;8851;-83
2023/06/29 01:00:29;;;;;;;;;28.50;26.75;;;;;;;;5056406;28;8854;-85
2023/06/29 01:02:57;;;;;;;;;29.75;25.50;;;;;;;;5060375;28;8847;-83
2023/06/29 01:05:24;;;;;;;;;32.75;30.00;;;;;;;;5049770;28;8955;-85
2023/06/29 01:07:57;;;;;;;;;31.60;29.40;;;;;;;;5061304;28;8857;-84
2023/06/29 01:10:28;;;;;;;;;27.40;26.20;;;;;;;;5063906;28;8851;-85
2023/06/29 01:12:55;;;;;;;;;31.40;29.20;;;;;;;;5051479;28;8877;-84
2023/06/29 01:15:23;;;;;;;;;30.20;27.20;;;;;;;;5053115;28;8986;-83
2023/06/29 01:17:56;;;;;;;;;32.60;29.20;;;;;;;;5056415;28;8842;-82
2023/06/29 01:20:25;;;;;;;;;26.80;23.40;;;;;;;;5047582;28;8926;-84
2023/06/29 01:22:58;;;;;;;;;28.60;27.20;;;;;;;;5053578;28;8989;-84
2023/06/29 01:25:28;;;;;;;;;30.80;28.00;;;;;;;;5059404;28;8884;-84
2023/06/29 01:27:55;;;;;;;;;30.60;27.80;;;;;;;;5055231;28;8901;-85
2023/06/29 01:30:23;;;;;;;;;32.60;29.40;;;;;;;;5056230;28;8825;-84
2023/06/29 01:32:53;;;;;;;;;35.20;29.20;;;;;;;;5051186;28;8861;-83
2023/06/29 01:35:21;;;;;;;;;34.25;29.75;;;;;;;;5050460;28;8903;-84
2023/06/29 01:37:54;;;;;;;;;33.75;31.50;;;;;;;;5051086;28;8875;-84
2023/06/29 01:40:25;;;;;;;;;33.25;30.25;;;;;;;;5038447;28;8883;-84
2023/06/29 01:42:54;;;;;;;;;29.00;26.00;;;;;;;;5050703;28;8988;-85
2023/06/29 01:45:23;;;;;;;;;31.25;29.00;;;;;;;;5051555;28;8862;-83
2023/06/29 01:47:50;;;;;;;;;36.50;31.25;;;;;;;;5051671;28;8862;-88
2023/06/29 01:50:18;;;;;;;;;35.50;30.00;;;;;;;;5051841;28;8868;-87
2023/06/29 01:52:45;;;;;;;;;32.75;31.25;;;;;;;;5061052;28;8850;-88
2023/06/29 01:55:13;;;;;;;;;29.25;29.00;;;;;;;;5054120;28;8873;-87
2023/06/29 01:57:41;;;;;;;;;38.00;30.00;;;;;;;;5053977;28;8877;-86
2023/06/29 02:00:10;;;;;;;;;37.25;32.00;;;;;;;;5055885;28;8845;-86
2023/06/29 02:02:37;;;;;;;;;30.75;29.00;;;;;;;;5059365;28;8957;-86
2023/06/29 02:05:05;;;;;;;;;36.25;32.00;;;;;;;;5054893;28;8923;-86
2023/06/29 02:07:35;;;;;;;;;35.25;32.50;;;;;;;;5057540;28;8884;-84
2023/06/29 02:10:05;;;;;;;;;35.00;31.25;;;;;;;;5056575;28;8884;-84
2023/06/29 02:12:32;;;;;;;;;32.25;28.25;;;;;;;;5053969;28;8841;-84
2023/06/29 02:15:01;;;;;;;;;35.00;32.25;;;;;;;;5063637;28;8984;-85
2023/06/29 02:17:28;;;;;;;;;34.00;31.50;;;;;;;;5051013;28;8870;-81
2023/06/29 02:19:55;;;;;;;;;40.25;34.00;;;;;;;;5049705;28;9667;-85
2023/06/29 02:22:23;;;;;;;;;35.75;32.00;;;;;;;;5049977;28;8974;-87
2023/06/29 02:24:50;;;;;;;;;28.75;27.75;;;;;;;;5062573;28;8995;-86
2023/06/29 02:27:17;;;;;;;;;38.50;31.25;;;;;;;;5049769;28;8834;-84
2023/06/29 02:29:45;;;;;;;;;37.00;32.00;;;;;;;;5037504;28;8893;-85
2023/06/29 02:32:13;;;;;;;;;33.50;30.50;;;;;;;;5049049;28;9754;-84
2023/06/29 02:34:40;;;;;;;;;36.50;32.50;;;;;;;;5050792;28;8849;-87
2023/06/29 02:37:08;;;;;;;;;36.25;32.75;;;;;;;;5056047;28;8849;-84
2023/06/29 02:39:35;;;;;;;;;42.75;35.25;;;;;;;;5052182;28;8961;-85
2023/06/29 02:42:05;;;;;;;;;35.00;32.50;;;;;;;;5050476;28;9003;-84
2023/06/29 02:44:34;;;;;;;;;39.00;33.00;;;;;;;;5050288;28;8969;-86
2023/06/29 02:47:02;;;;;;;;;42.25;34.25;;;;;;;;5061425;28;8888;-86
2023/06/29 02:49:31;;;;;;;;;38.75;33.50;;;;;;;;5048520;28;9660;-83
2023/06/29 02:51:58;;;;;;;;;40.75;33.00;;;;;;;;5048544;28;8880;-86
2023/06/29 02:54:25;;;;;;;;;38.75;34.25;;;;;;;;5048862;28;8870;-86
2023/06/29 02:56:52;;;;;;;;;35.75;33.00;;;;;;;;5061544;28;8868;-83
2023/06/29 02:59:20;;;;;;;;;36.75;33.00;;;;;;;;5049748;28;8995;-85
2023/06/29 03:01:47;;;;;;;;;40.25;35.00;;;;;;;;5049248;28;8806;-85
2023/06/29 03:04:14;;;;;;;;;35.25;31.50;;;;;;;;5049108;28;8892;-84
2023/06/29 03:06:43;;;;;;;;;40.75;34.50;;;;;;;;5061087;28;8846;-85
2023/06/29 03:09:10;;;;;;;;;39.50;33.00;;;;;;;;5062004;28;8985;-83
2023/06/29 03:11:37;;;;;;;;;41.50;34.75;;;;;;;;5048947;28;8964;-85
2023/06/29 03:14:04;;;;;;;;;39.75;35.00;;;;;;;;5052272;28;9675;-84
2023/06/29 03:16:32;;;;;;;;;32.25;30.00;;;;;;;;5054811;28;8988;-84
2023/06/29 03:18:59;;;;;;;;;39.25;34.00;;;;;;;;5050244;28;8850;-85
2023/06/29 03:21:26;;;;;;;;;33.00;30.00;;;;;;;;5049296;28;8850;-84
2023/06/29 03:23:55;;;;;;;;;40.00;34.75;;;;;;;;5050408;28;8844;-85
2023/06/29 03:26:22;;;;;;;;;37.50;33.75;;;;;;;;5052625;28;8888;-87
2023/06/29 03:28:49;;;;;;;;;39.75;34.50;;;;;;;;5052945;28;8980;-86
2023/06/29 03:31:17;;;;;;;;;37.00;32.25;;;;;;;;5053112;28;8789;-87
2023/06/29 03:33:44;;;;;;;;;41.75;35.25;;;;;;;;5052946;28;8857;-87
2023/06/29 03:36:12;;;;;;;;;39.50;33.25;;;;;;;;5060086;28;8979;-87
2023/06/29 03:38:40;;;;;;;;;40.50;35.00;;;;;;;;5060887;28;8976;-84
2023/06/29 03:41:08;;;;;;;;;41.75;33.50;;;;;;;;5057760;28;8889;-82
2023/06/29 03:43:35;;;;;;;;;36.25;32.50;;;;;;;;5066145;28;8946;-87
2023/06/29 03:46:03;;;;;;;;;44.75;35.75;;;;;;;;5067639;28;9646;-86
2023/06/29 03:48:30;;;;;;;;;38.50;32.75;;;;;;;;5047465;28;8876;-87
2023/06/29 03:50:58;;;;;;;;;40.25;35.00;;;;;;;;5050655;28;8850;-86
2023/06/29 03:53:26;;;;;;;;;45.00;35.50;;;;;;;;5055339;28;8925;-84
2023/06/29 03:55:53;;;;;;;;;44.25;36.00;;;;;;;;5054095;28;8938;-85
2023/06/29 03:58:24;;;;;;;;;40.50;34.50;;;;;;;;5061371;28;8844;-86
2023/06/29 04:00:51;;;;;;;;;38.00;33.00;;;;;;;;5061191;28;8795;-86
2023/06/29 04:03:19;;;;;;;;;31.50;30.25;;;;;;;;5048575;28;8996;-87
2023/06/29 04:05:46;;;;;;;;;38.75;32.00;;;;;;;;5047919;28;8883;-85
2023/06/29 04:08:13;;;;;;;;;45.25;39.00;;;;;;;;5047763;28;8866;-88
2023/06/29 04:10:40;;;;;;;;;34.50;32.50;;;;;;;;5052643;28;8846;-79
2023/06/29 04:13:08;;;;;;;;;39.50;35.25;;;;;;;;5054869;28;9005;-80
2023/06/29 04:15:36;;;;;;;;;44.25;35.75;;;;;;;;5055785;28;8863;-81
2023/06/29 04:18:03;;;;;;;;;45.50;36.75;;;;;;;;5050846;28;8935;-76
2023/06/29 04:20:32;;;;;;;;;41.00;35.75;;;;;;;;5051577;28;8845;-76
2023/06/29 04:22:59;;;;;;;;;43.00;34.75;;;;;;;;5051190;28;8853;-80
2023/06/29 04:25:27;;;;;;;;;45.25;37.50;;;;;;;;5051083;28;8996;-80
2023/06/29 04:27:54;;;;;;;;;43.50;35.50;;;;;;;;5051967;28;8838;-80
2023/06/29 04:30:21;;;;;;;;;47.00;37.75;;;;;;;;5067113;28;8855;-80
2023/06/29 04:32:50;;;;;;;;;45.25;38.00;;;;;;;;5075461;28;8854;-84
2023/06/29 04:35:17;;;;;;;;;37.75;32.25;;;;;;;;5070223;28;8881;-85
2023/06/29 04:37:45;;;;;;;;;37.75;33.50;;;;;;;;5070429;28;8989;-84
2023/06/29 04:40:14;;;;;;;;;38.50;33.25;;;;;;;;5056475;28;8866;-84
2023/06/29 04:42:45;;;;;;;;;38.50;33.25;;;;;;;;5069461;28;8851;-84
2023/06/29 04:45:18;;;;;;;;;44.75;36.00;;;;;;;;5068359;28;8953;-85
2023/06/29 04:47:46;;;;;;;;;41.75;35.75;;;;;;;;5070224;28;8862;-84
2023/06/29 04:50:15;;;;;;;;;47.50;38.50;;;;;;;;5068009;28;8877;-84
2023/06/29 04:52:43;;;;;;;;;46.50;37.00;;;;;;;;5069151;28;8835;-83
2023/06/29 04:55:11;;;;;;;;;45.50;37.25;;;;;;;;5067549;28;9629;-84
2023/06/29 04:57:38;;;;;;;;;38.50;32.00;;;;;;;;5067408;28;8850;-82
2023/06/29 05:00:10;;;;;;;;;41.50;35.75;;;;;;;;5057962;28;8847;-82
2023/06/29 05:02:38;;;;;;;;;48.00;38.25;;;;;;;;5058581;28;8866;-82
2023/06/29 05:05:05;;;;;;;;;47.00;39.50;;;;;;;;5056216;28;8869;-85
2023/06/29 05:07:38;;;;;;;;;45.75;37.25;;;;;;;;5055047;28;8853;-79
2023/06/29 05:10:06;;;;;;;;;45.75;39.00;;;;;;;;5064198;28;8874;-81
2023/06/29 05:12:33;;;;;;;;;48.75;39.50;;;;;;;;5062203;28;8865;-78
2023/06/29 05:15:01;;;;;;;;;47.00;38.50;;;;;;;;5061298;28;8851;-79
2023/06/29 05:17:29;;;;;;;;;47.75;38.00;;;;;;;;5066395;28;8873;-79
2023/06/29 05:19:56;;;;;;;;;51.50;40.50;;;;;;;;5053730;28;8893;-79
2023/06/29 05:22:23;;;;;;;;;52.00;41.00;;;;;;;;5059716;28;8857;-78
2023/06/29 05:24:52;;;;;;;;;44.50;37.00;;;;;;;;5048837;28;8996;-78
2023/06/29 05:27:19;;;;;;;;;49.00;39.50;;;;;;;;5053628;28;9008;-79
2023/06/29 05:29:46;;;;;;;;;50.50;42.25;;;;;;;;5051418;28;8850;-78
2023/06/29 05:32:13;;;;;;;;;45.50;39.00;;;;;;;;5053397;28;8922;-77
2023/06/29 05:34:41;;;;;;;;;44.50;38.50;;;;;;;;5051839;28;8876;-78
2023/06/29 05:37:08;;;;;;;;;43.75;36.75;;;;;;;;5049865;28;8861;-80
2023/06/29 05:39:35;;;;;;;;;49.00;39.25;;;;;;;;5049721;28;8872;-84
2023/06/29 05:42:04;;;;;;;;;48.00;39.00;;;;;;;;5051953;28;8884;-83
2023/06/29 05:44:32;;;;;;;;;46.00;39.25;;;;;;;;5053768;28;8859;-82
2023/06/29 05:46:59;;;;;;;;;48.00;40.75;;;;;;;;5055422;28;8893;-82
2023/06/29 05:49:26;;;;;;;;;45.25;37.25;;;;;;;;5063217;28;8964;-82
2023/06/29 05:51:54;;;;;;;;;49.75;39.50;;;;;;;;5058391;28;8957;-85
2023/06/29 05:54:21;;;;;;;;;46.75;37.75;;;;;;;;5043617;28;8972;-77
2023/06/29 05:56:48;;;;;;;;;49.75;39.25;;;;;;;;5049505;28;8950;-80
2023/06/29 05:59:17;;;;;;;;;46.25;36.00;;;;;;;;5049129;28;10205;-83
2023/06/29 06:01:47;;;;;;;;;50.25;41.00;;;;;;;;5049687;28;8834;-81
2023/06/29 06:04:14;;;;;;;;;47.25;39.50;;;;;;;;5051848;28;8927;-85
2023/06/29 06:06:42;;;;;;;;;53.00;42.50;;;;;;;;5058392;28;8855;-87
2023/06/29 06:09:09;;;;;;;;;50.25;41.50;;;;;;;;5066016;28;8841;-85
2023/06/29 06:11:36;;;;;;;;;54.00;44.00;;;;;;;;5049902;28;8883;-84
2023/06/29 06:14:03;;;;;;;;;46.50;39.75;;;;;;;;5051222;28;8859;-78
2023/06/29 06:16:32;;;;;;;;;47.75;39.75;;;;;;;;5050243;28;8888;-85
2023/06/29 06:18:59;;;;;;;;;50.25;40.50;;;;;;;;5050921;28;8901;-81
2023/06/29 06:21:26;;;;;;;;;53.25;42.75;;;;;;;;5050198;28;8984;-82
2023/06/29 06:23:55;;;;;;;;;48.25;40.25;;;;;;;;5051976;28;8874;-77
2023/06/29 06:26:22;;;;;;;;;45.50;39.00;;;;;;;;5053166;28;8868;-82
2023/06/29 06:28:50;;;;;;;;;49.50;41.25;;;;;;;;5054923;28;8875;-82
2023/06/29 06:31:18;;;;;;;;;52.25;42.75;;;;;;;;5049460;28;8809;-83
2023/06/29 06:33:47;;;;;;;;;49.25;40.50;;;;;;;;5058037;28;8878;-85
2023/06/29 06:36:14;;;;;;;;;55.75;43.75;;;;;;;;5051817;28;8975;-79
2023/06/29 06:38:41;;;;;;;;;48.00;40.50;;;;;;;;5053861;28;8876;-83
2023/06/29 06:41:09;;;;;;;;;53.50;44.00;;;;;;;;5054400;28;8865;-84
2023/06/29 06:43:36;;;;;;;;;53.25;43.00;;;;;;;;5054212;28;8852;-85
2023/06/29 06:46:05;;;;;;;;;50.50;41.25;;;;;;;;5054082;28;8908;-82
2023/06/29 06:48:33;;;;;;;;;45.75;36.00;;;;;;;;5056135;28;8853;-83
2023/06/29 06:51:02;;;;;;;;;52.75;41.50;;;;;;;;5057783;28;9008;-84
2023/06/29 06:53:29;;;;;;;;;51.25;40.75;;;;;;;;5053119;28;8853;-84
2023/06/29 06:55:56;;;;;;;;;44.50;37.75;;;;;;;;5050283;28;8862;-79
2023/06/29 06:58:23;;;;;;;;;48.25;40.00;;;;;;;;5049602;28;8869;-84
2023/06/29 07:00:51;;;;;;;;;56.25;41.75;;;;;;;;5058288;28;8791;-83
2023/06/29 07:03:19;;;;;;;;;51.25;42.00;;;;;;;;5059085;28;8970;-84
2023/06/29 07:05:46;;;;;;;;;51.50;42.50;;;;;;;;5055143;28;8890;-83
2023/06/29 07:08:15;;;;;;;;;46.25;37.75;;;;;;;;5058190;28;8857;-79
2023/06/29 07:10:42;;;;;;;;;54.75;43.25;;;;;;;;5048034;28;8850;-78
2023/06/29 07:13:10;;;;;;;;;46.25;39.25;;;;;;;;5063953;28;8835;-78
2023/06/29 07:15:37;;;;;;;;;47.25;39.50;;;;;;;;5064865;28;8871;-79
2023/06/29 07:18:04;;;;;;;;;49.00;40.50;;;;;;;;5064591;28;8851;-77
2023/06/29 07:20:34;;;;;;;;;49.75;38.75;;;;;;;;5065443;28;8920;-79
2023/06/29 07:23:01;;;;;;;;;50.00;41.50;;;;;;;;5065510;28;8851;-79
2023/06/29 07:25:30;;;;;;;;;47.00;39.00;;;;;;;;5064668;28;8948;-78
2023/06/29 07:27:58;;;;;;;;;52.50;41.25;;;;;;;;5066780;28;8880;-77
2023/06/29 07:30:26;;;;;;;;;46.25;39.50;;;;;;;;5063131;28;8868;-81
2023/06/29 07:32:53;;;;;;;;;49.50;40.75;;;;;;;;5066062;28;8843;-82
2023/06/29 07:35:20;;;;;;;;;51.00;42.50;;;;;;;;5062776;28;8986;-81
2023/06/29 07:37:48;;;;;;;;;52.00;40.75;;;;;;;;5065644;28;8884;-82
2023/06/29 07:40:15;;;;;;;;;46.25;39.50;;;;;;;;5052642;28;8865;-80
2023/06/29 07:42:44;;;;;;;;;44.50;38.50;;;;;;;;5068253;28;8917;-84
2023/06/29 07:45:12;;;;;;;;;48.25;41.25;;;;;;;;5065295;28;8889;-85
2023/06/29 07:47:39;;;;;;;;;48.75;41.25;;;;;;;;5066442;28;8863;-86
2023/06/29 07:50:07;;;;;;;;;48.50;39.50;;;;;;;;5067451;28;8859;-81
2023/06/29 07:52:35;;;;;;;;;47.75;38.75;;;;;;;;5068994;28;8850;-83
2023/06/29 07:55:04;;;;;;;;;47.50;38.50;;;;;;;;5067389;28;8859;-81
2023/06/29 07:57:32;;;;;;;;;46.50;38.00;;;;;;;;5068816;28;8870;-81
2023/06/29 08:00:01;;;;;;;;;46.00;37.75;;;;;;;;5051845;28;8879;-80
2023/06/29 08:02:28;;;;;;;;;48.25;40.00;;;;;;;;5050416;28;8830;-81
2023/06/29 08:04:55;;;;;;;;;48.75;39.25;;;;;;;;5050428;28;9022;-82
2023/06/29 08:07:23;;;;;;;;;47.50;40.25;;;;;;;;5064780;28;8859;-82
2023/06/29 08:09:50;;;;;;;;;48.25;40.00;;;;;;;;5052419;28;8968;-82
2023/06/29 08:12:17;;;;;;;;;47.50;39.25;;;;;;;;5052644;28;8857;-87
2023/06/29 08:14:44;;;;;;;;;50.50;41.25;;;;;;;;5055939;28;8862;-93
2023/06/29 08:17:13;;;;;;;;;49.75;41.00;;;;;;;;5057477;28;8880;-93
2023/06/29 08:19:40;;;;;;;;;52.25;42.50;;;;;;;;5074755;28;8859;-81
2023/06/29 08:22:07;;;;;;;;;40.50;35.25;;;;;;;;5061700;28;8855;-88
2023/06/29 08:24:34;;;;;;;;;48.00;39.00;;;;;;;;5055965;28;9792;-83
2023/06/29 08:27:02;;;;;;;;;49.75;41.00;;;;;;;;5058789;28;8862;-85
2023/06/29 08:29:29;;;;;;;;;47.75;38.50;;;;;;;;5065787;28;8998;-87
2023/06/29 08:31:56;;;;;;;;;42.50;36.50;;;;;;;;5068447;28;8830;-83
2023/06/29 08:34:25;;;;;;;;;48.50;40.50;;;;;;;;5061109;28;8855;-81
2023/06/29 08:36:52;;;;;;;;;50.25;40.50;;;;;;;;5064530;28;8843;-80
2023/06/29 08:39:19;;;;;;;;;51.75;41.00;;;;;;;;5064494;28;9044;-82
2023/06/29 08:41:49;;;;;;;;;50.40;39.40;;;;;;;;5053299;28;8880;-82
2023/06/29 08:44:18;;;;;;;;;41.00;35.20;;;;;;;;5054862;28;8851;-88
2023/06/29 08:46:48;;;;;;;;;46.00;38.00;;;;;;;;5060987;28;8845;-88
2023/06/29 08:49:16;;;;;;;;;45.60;39.20;;;;;;;;5063840;28;8843;-89
2023/06/29 08:51:48;;;;;;;;;49.40;41.20;;;;;;;;5064669;28;9017;-81
2023/06/29 08:54:15;;;;;;;;;45.60;36.60;;;;;;;;5063877;28;8835;-85
2023/06/29 08:56:43;;;;;;;;;46.80;39.40;;;;;;;;5063139;28;8859;-81
2023/06/29 08:59:10;;;;;;;;;45.60;38.20;;;;;;;;5056476;28;8950;-77
2023/06/29 09:01:38;;;;;;;;;49.00;40.20;;;;;;;;5049349;28;8916;-77
2023/06/29 09:04:05;;;;;;;;;35.40;31.40;;;;;;;;5051239;28;8842;-80
2023/06/29 09:06:33;;;;;;;;;44.60;36.20;;;;;;;;5038198;28;8845;-77
2023/06/29 09:09:02;;;;;;;;;46.60;38.20;;;;;;;;5052006;28;8873;-77
2023/06/29 09:11:33;;;;;;;;;40.40;35.60;;;;;;;;5062506;28;8988;-80
2023/06/29 09:14:03;;;;;;;;;41.60;36.60;;;;;;;;5051264;28;8991;-77
2023/06/29 09:16:30;;;;;;;;;41.40;35.00;;;;;;;;5050229;28;8853;-81
2023/06/29 09:18:58;;;;;;;;;42.40;36.80;;;;;;;;5050429;28;8839;-80
2023/06/29 09:21:28;;;;;;;;;42.40;35.40;;;;;;;;5051262;28;8877;-84
2023/06/29 09:23:58;;;;;;;;;43.80;37.40;;;;;;;;5052214;28;8888;-80
2023/06/29 09:26:28;;;;;;;;;44.60;37.20;;;;;;;;5051270;28;8880;-78
2023/06/29 09:28:59;;;;;;;;;46.00;37.00;;;;;;;;5051763;28;8892;-83
2023/06/29 09:31:32;;;;;;;;;47.60;38.40;;;;;;;;5050041;28;8882;-80
2023/06/29 09:34:17;;;;;;;;;43.40;36.20;;;;;;;;5063058;28;8862;-82
2023/06/29 09:36:44;;;;;;;;;45.60;37.00;;;;;;;;5049787;28;8861;-79
2023/06/29 09:39:12;;;;;;;;;46.00;36.60;;;;;;;;5051970;28;8853;-85
2023/06/29 09:41:48;;;;;;;;;40.60;35.00;;;;;;;;5053166;28;8867;-87
2023/06/29 09:44:19;;;;;;;;;39.60;35.20;;;;;;;;5051562;28;8857;-87
2023/06/29 09:46:46;;;;;;;;;45.00;36.00;;;;;;;;5051830;28;8833;-82
2023/06/29 09:49:14;;;;;;;;;47.80;37.20;;;;;;;;5053227;28;8870;-79
2023/06/29 09:51:41;;;;;;;;;44.80;37.80;;;;;;;;5071813;28;8966;-81
2023/06/29 09:54:12;;;;;;;;;41.20;36.00;;;;;;;;5073402;28;8855;-84
2023/06/29 09:56:40;;;;;;;;;46.60;39.00;;;;;;;;5065431;28;8925;-81
2023/06/29 09:59:11;;;;;;;;;43.60;34.20;;;;;;;;5054738;28;8939;-82
2023/06/29 10:01:38;;;;;;;;;37.20;32.20;;;;;;;;5070584;28;8783;-82
2023/06/29 10:04:08;;;;;;;;;44.00;35.60;;;;;;;;5060318;28;9015;-84
2023/06/29 10:06:43;;;;;;;;;40.80;33.20;;;;;;;;5059152;28;9021;-82
2023/06/29 10:09:13;;;;;;;;;40.80;35.00;;;;;;;;5060460;28;8851;-82
2023/06/29 10:11:43;;;;;;;;;38.60;34.60;;;;;;;;5055594;28;8873;-79
2023/06/29 10:14:14;;;;;;;;;38.20;33.80;;;;;;;;5052374;28;8865;-84
2023/06/29 10:16:45;;;;;;;;;43.40;36.00;;;;;;;;5055549;28;8869;-80
2023/06/29 10:19:17;;;;;;;;;45.60;34.80;;;;;;;;5057016;28;8864;-81
2023/06/29 10:21:45;;;;;;;;;42.40;34.60;;;;;;;;5055628;28;9783;-82
2023/06/29 10:24:15;;;;;;;;;42.20;34.60;;;;;;;;5056523;28;8870;-83
2023/06/29 10:26:43;;;;;;;;;37.20;31.20;;;;;;;;5051170;28;8989;-82
2023/06/29 10:29:11;;;;;;;;;39.60;35.00;;;;;;;;5059536;28;8934;-83
2023/06/29 10:31:44;;;;;;;;;37.80;32.20;;;;;;;;5053018;28;9648;-87
2023/06/29 10:34:11;;;;;;;;;29.20;28.80;;;;;;;;5062486;28;8874;-84
2023/06/29 10:36:49;;;;;;;;;33.60;31.60;;;;;;;;5049597;28;8963;-84
2023/06/29 10:39:43;;;;;;;;;39.40;30.60;;;;;;;;5059217;28;8839;-84
2023/06/29 10:42:13;;;;;;;;;38.80;33.00;;;;;;;;5050106;28;8861;-82
2023/06/29 10:44:43;;;;;;;;;37.60;32.80;;;;;;;;5054855;28;9625;-84
2023/06/29 10:47:27;;;;;;;;;31.80;30.80;;;;;;;;5059631;28;8879;-83
2023/06/29 10:50:18;;;;;;;;;39.40;34.00;;;;;;;;5051278;28;8835;-80
2023/06/29 10:52:49;;;;;;;;;37.60;34.00;;;;;;;;5050994;28;8873;-80
2023/06/29 10:55:17;;;;;;;;;38.40;33.20;;;;;;;;5046818;28;8908;-80
2023/06/29 10:57:47;;;;;;;;;44.00;34.60;;;;;;;;5050364;28;8993;-77
2023/06/29 11:00:16;;;;;;;;;36.60;31.80;;;;;;;;5049100;28;8871;-80
2023/06/29 11:02:43;;;;;;;;;41.80;35.40;;;;;;;;5049297;28;9003;-82
2023/06/29 11:05:13;;;;;;;;;37.80;33.40;;;;;;;;5050387;28;8922;-80
2023/06/29 11:07:41;;;;;;;;;44.60;37.40;;;;;;;;5055506;28;8947;-82
2023/06/29 11:10:09;;;;;;;;;41.40;35.20;;;;;;;;5049672;28;8931;-83
2023/06/29 11:12:38;;;;;;;;;43.20;33.60;;;;;;;;5058865;28;8846;-88
2023/06/29 11:15:09;;;;;;;;;37.80;33.40;;;;;;;;5050408;28;8872;-82
2023/06/29 11:17:38;;;;;;;;;40.20;35.20;;;;;;;;5054237;28;8871;-85
2023/06/29 11:20:06;;;;;;;;;38.00;33.40;;;;;;;;5042946;28;8850;-87
2023/06/29 11:22:33;;;;;;;;;33.60;27.80;;;;;;;;5050938;28;8857;-86
2023/06/29 11:25:01;;;;;;;;;17.40;13.00;;;;;;;;5051399;28;8853;-85
2023/06/29 11:27:29;;;;;;;;;43.40;34.60;;;;;;;;5051664;28;8828;-83
2023/06/29 11:29:57;;;;;;;;;40.60;33.60;;;;;;;;5067010;28;9024;-88
2023/06/29 11:32:26;;;;;;;;;39.60;34.20;;;;;;;;5057158;28;8795;-86
2023/06/29 11:34:59;;;;;;;;;37.20;32.80;;;;;;;;5058166;28;8861;-83
2023/06/29 11:37:27;;;;;;;;;41.80;35.20;;;;;;;;5050392;28;9027;-81
2023/06/29 11:39:58;;;;;;;;;44.20;33.60;;;;;;;;5052460;28;8881;-87
2023/06/29 11:42:26;;;;;;;;;43.00;36.00;;;;;;;;5044327;28;8865;-85
2023/06/29 11:45:03;;;;;;;;;48.00;38.60;;;;;;;;5064223;28;8858;-85
2023/06/29 11:47:31;;;;;;;;;38.00;34.20;;;;;;;;5050625;28;8869;-85
2023/06/29 11:50:07;;;;;;;;;67.75;56.00;;;;;;;;5056134;28;8853;-85
2023/06/29 11:52:35;;;;;;;;;61.00;50.40;;;;;;;;5048332;28;8919;-86
2023/06/29 11:55:05;;;;;;;;;59.00;45.60;;;;;;;;5049663;28;8873;-85
2023/06/29 11:57:34;;;;;;;;;47.80;38.40;;;;;;;;5047907;28;9628;-90
2023/06/29 12:00:02;;;;;;;;;47.60;38.60;;;;;;;;5048837;28;8847;-83
2023/06/29 12:02:31;;;;;;;;;47.20;39.60;;;;;;;;5047551;28;8816;-84
2023/06/29 12:04:59;;;;;;;;;38.40;33.40;;;;;;;;5057042;28;8869;-82
2023/06/29 12:07:38;;;;;;;;;35.20;31.20;;;;;;;;5047372;28;8954;-83
2023/06/29 12:10:06;;;;;;;;;35.60;30.40;;;;;;;;5048442;28;8849;-84
2023/06/29 12:12:38;;;;;;;;;44.60;38.60;;;;;;;;5060599;28;8843;-84
2023/06/29 12:15:15;;;;;;;;;52.00;42.80;;;;;;;;5056189;28;8846;-82
2023/06/29 12:17:45;;;;;;;;;54.60;44.60;;;;;;;;5065493;28;8880;-82
2023/06/29 12:20:16;;;;;;;;;57.20;47.20;;;;;;;;5051038;28;8876;-82
2023/06/29 12:22:46;;;;;;;;;46.20;38.20;;;;;;;;5060400;28;8842;-81
2023/06/29 12:25:15;;;;;;;;;44.40;38.00;;;;;;;;5048944;28;8881;-80
2023/06/29 12:27:44;;;;;;;;;47.60;40.00;;;;;;;;5050000;28;9709;-82
2023/06/29 12:30:15;;;;;;;;;47.20;38.00;;;;;;;;5055705;28;8871;-84
2023/06/29 12:32:42;;;;;;;;;43.80;36.00;;;;;;;;5047969;28;8839;-83
2023/06/29 12:35:10;;;;;;;;;34.00;30.80;;;;;;;;5050896;28;8861;-84
2023/06/29 12:37:37;;;;;;;;;38.00;32.20;;;;;;;;5051258;28;8978;-82
2023/06/29 12:40:07;;;;;;;;;43.60;36.20;;;;;;;;5051746;28;8821;-84
2023/06/29 12:42:37;;;;;;;;;39.80;32.00;;;;;;;;5051317;28;8854;-81
2023/06/29 12:45:06;;;;;;;;;39.40;32.00;;;;;;;;5055147;28;8866;-81
2023/06/29 12:47:34;;;;;;;;;33.60;31.00;;;;;;;;5050570;28;9739;-82
2023/06/29 12:50:02;;;;;;;;;38.60;34.00;;;;;;;;5052224;28;8837;-84
2023/06/29 12:52:30;;;;;;;;;35.40;31.60;;;;;;;;5051461;28;8896;-83
2023/06/29 12:54:59;;;;;;;;;41.00;35.20;;;;;;;;5056670;28;8986;-84
2023/06/29 12:57:28;;;;;;;;;36.20;31.20;;;;;;;;5054545;28;8853;-84
2023/06/29 12:59:56;;;;;;;;;39.80;33.20;;;;;;;;5061432;28;8859;-84
2023/06/29 13:02:24;;;;;;;;;37.00;31.40;;;;;;;;5056129;28;8831;-81
2023/06/29 13:04:52;;;;;;;;;33.40;30.80;;;;;;;;5055263;28;8884;-83
2023/06/29 13:07:19;;;;;;;;;44.60;37.00;;;;;;;;5054904;28;8888;-81
2023/06/29 13:09:51;;;;;;;;;29.40;29.00;;;;;;;;5054389;28;8984;-85
2023/06/29 13:12:18;;;;;;;;;36.40;32.40;;;;;;;;5052922;28;8946;-82
2023/06/29 13:14:53;;;;;;;;;36.40;31.40;;;;;;;;5055719;28;8965;-82
2023/06/29 13:17:20;;;;;;;;;38.40;34.00;;;;;;;;5064489;28;9780;-77
2023/06/29 13:19:48;;;;;;;;;39.20;32.60;;;;;;;;5052431;28;9055;-79
2023/06/29 13:22:18;;;;;;;;;41.40;35.80;;;;;;;;5054125;28;8877;-83
2023/06/29 13:24:46;;;;;;;;;30.80;29.60;;;;;;;;5058032;28;8858;-81
2023/06/29 13:27:13;;;;;;;;;34.20;31.00;;;;;;;;5053028;28;8870;-78
2023/06/29 13:29:40;;;;;;;;;35.60;29.60;;;;;;;;5059410;28;9585;-81
2023/06/29 13:32:10;;;;;;;;;35.80;31.60;;;;;;;;5053921;28;9565;-81
2023/06/29 13:34:37;;;;;;;;;31.60;30.20;;;;;;;;5049720;28;8876;-79
2023/06/29 13:37:05;;;;;;;;;31.20;27.20;;;;;;;;5055088;28;8854;-79
2023/06/29 13:39:37;;;;;;;;;30.80;28.20;;;;;;;;5061043;28;8847;-80
2023/06/29 13:42:09;;;;;;;;;52.25;42.75;;;;;;;;5053609;28;8868;-81
2023/06/29 13:44:37;;;;;;;;;63.75;49.00;;;;;;;;5055228;28;8956;-79
2023/06/29 13:47:05;;;;;;;;;76.50;68.25;;;;;;;;5052376;28;8847;-81
2023/06/29 13:49:34;;;;;;;;;68.33;57.33;;;;;;;;5058213;28;9598;-89
2023/06/29 13:52:02;;;;;;;;;51.33;42.00;;;;;;;;5059715;28;8958;-88
2023/06/29 13:54:29;;;;;;;;;29.00;28.25;;;;;;;;5063635;28;8903;-83
2023/06/29 13:56:57;;;;;;;;;25.40;25.00;;;;;;;;5059760;28;8858;-85
2023/06/29 13:59:24;;;;;;;;;24.60;21.00;;;;;;;;5052038;28;8952;-88
2023/06/29 14:01:52;;;;;;;;;22.80;22.00;;;;;;;;5043061;28;8874;-86
2023/06/29 14:04:19;;;;;;;;;18.80;18.40;;;;;;;;5061172;28;8879;-82
2023/06/29 14:06:47;;;;;;;;;24.20;21.00;;;;;;;;5052127;28;8830;-84
2023/06/29 14:09:15;;;;;;;;;21.00;19.60;;;;;;;;5060139;28;8949;-81
2023/06/29 14:11:42;;;;;;;;;15.40;14.00;;;;;;;;5063718;28;8850;-83
2023/06/29 14:14:10;;;;;;;;;24.00;19.80;;;;;;;;5050363;28;8943;-79
2023/06/29 14:16:37;;;;;;;;;20.20;18.40;;;;;;;;5052338;28;8980;-77
2023/06/29 14:19:05;;;;;;;;;18.40;18.40;;;;;;;;5060423;28;8984;-82
2023/06/29 14:21:34;;;;;;;;;20.80;18.80;;;;;;;;5059129;28;8856;-81
2023/06/29 14:24:03;;;;;;;;;21.20;19.00;;;;;;;;5060515;28;8989;-80
2023/06/29 14:26:31;;;;;;;;;19.20;18.40;;;;;;;;5056719;28;8963;-84
2023/06/29 14:28:58;;;;;;;;;23.20;20.80;;;;;;;;5063169;28;8857;-83
2023/06/29 14:31:27;;;;;;;;;21.80;20.40;;;;;;;;5061609;28;8841;-78
2023/06/29 14:33:55;;;;;;;;;17.20;16.20;;;;;;;;5057764;28;8827;-77
2023/06/29 14:36:22;;;;;;;;;19.80;19.60;;;;;;;;5063623;28;8879;-77
2023/06/29 14:38:49;;;;;;;;;20.80;17.60;;;;;;;;5051393;28;8857;-77